createdAt,value
2023-02-25T00:01:21.443Z,95294.72
2023-02-25T00:03:54.578Z,95294.03
2023-02-25T00:06:22.470Z,95292.09
2023-02-25T00:08:51.020Z,95296.53
2023-02-25T00:11:20.335Z,95300.56
2023-02-25T00:13:47.529Z,95311.75
2023-02-25T00:16:14.891Z,95310.91
2023-02-25T00:18:44.424Z,95315.94
2023-02-25T00:21:15.427Z,95316.13
2023-02-25T00:23:47.671Z,95315.31
2023-02-25T00:26:17.982Z,95313.53
2023-02-25T00:28:44.806Z,95311.59
2023-02-25T00:31:15.585Z,95310.34
2023-02-25T00:33:42.880Z,95308.38
2023-02-25T00:36:12.851Z,95304.47
2023-02-25T00:38:39.662Z,95305.09
2023-02-25T00:41:13.911Z,95315.34
2023-02-25T00:43:43.013Z,95313.91
2023-02-25T00:46:11.366Z,95318.44
2023-02-25T00:48:38.696Z,95312.28
2023-02-25T00:51:07.497Z,95317.47
2023-02-25T00:53:34.038Z,95322.31
2023-02-25T00:56:02.062Z,95330.44
2023-02-25T00:58:28.744Z,95331.88
2023-02-25T01:00:55.306Z,95331.06
2023-02-25T01:03:21.960Z,95325.56
2023-02-25T01:05:51.512Z,95325.56
2023-02-25T01:08:20.172Z,95321.69
2023-02-25T01:10:47.894Z,95326.53
2023-02-25T01:13:15.772Z,95322.63
2023-02-25T01:15:42.560Z,95315.84
2023-02-25T01:18:09.037Z,95326.84
2023-02-25T01:20:39.490Z,95322.66
2023-02-25T01:23:06.022Z,95319.09
2023-02-25T01:25:32.838Z,95323.00
2023-02-25T01:27:59.320Z,95321.03
2023-02-25T01:30:26.200Z,95324.75
2023-02-25T01:32:52.701Z,95322.66
2023-02-25T01:35:19.200Z,95321.53
2023-02-25T01:37:47.503Z,95306.09
2023-02-25T01:40:17.681Z,95319.72
2023-02-25T01:42:47.762Z,95320.22
2023-02-25T01:45:17.808Z,95319.25
2023-02-25T01:48:09.589Z,95321.38
2023-02-25T01:50:46.583Z,95322.97
2023-02-25T01:53:17.781Z,95321.38
2023-02-25T01:55:44.478Z,95323.78
2023-02-25T01:58:12.652Z,95332.69
2023-02-25T02:00:45.455Z,95337.53
2023-02-25T02:03:16.031Z,95331.91
2023-02-25T02:05:54.029Z,95328.81
2023-02-25T02:08:21.196Z,95327.50
2023-02-25T02:10:47.636Z,95329.28
2023-02-25T02:13:14.335Z,95327.81
2023-02-25T02:15:55.558Z,95323.63
2023-02-25T02:18:26.915Z,95319.06
2023-02-25T02:21:20.076Z,95334.13
2023-02-25T02:23:55.993Z,95343.88
2023-02-25T02:26:44.171Z,95342.72
2023-02-25T02:29:41.091Z,95341.94
2023-02-25T02:32:23.969Z,95344.84
2023-02-25T02:34:56.524Z,95345.28
2023-02-25T02:37:53.470Z,95354.56
2023-02-25T02:40:38.239Z,95352.28
2023-02-25T02:43:49.953Z,95345.16
2023-02-25T02:46:32.880Z,95351.00
2023-02-25T02:49:28.387Z,95349.22
2023-02-25T02:52:03.730Z,95342.56
2023-02-25T02:54:35.354Z,95350.84
2023-02-25T02:57:03.770Z,95347.44
2023-02-25T02:59:54.889Z,95354.72
2023-02-25T03:02:26.602Z,95353.78
2023-02-25T03:04:57.752Z,95356.06
2023-02-25T03:07:24.465Z,95354.28
2023-02-25T03:09:55.379Z,95363.16
2023-02-25T03:12:21.888Z,95362.84
2023-02-25T03:14:48.381Z,95367.22
2023-02-25T03:17:23.879Z,95365.13
2023-02-25T03:19:53.931Z,95364.78
2023-02-25T03:22:27.840Z,95363.34
2023-02-25T03:25:04.070Z,95362.84
2023-02-25T03:27:38.043Z,95354.09
2023-02-25T03:30:21.610Z,95369.84
2023-02-25T03:32:55.908Z,95367.56
2023-02-25T03:35:24.110Z,95374.34
2023-02-25T03:37:54.152Z,95372.56
2023-02-25T03:40:24.390Z,95369.16
2023-02-25T03:43:15.038Z,95369.31
2023-02-25T03:45:44.053Z,95375.81
2023-02-25T03:48:13.640Z,95370.47
2023-02-25T03:51:09.793Z,95376.16
2023-02-25T03:53:36.470Z,95379.53
2023-02-25T03:56:07.175Z,95375.81
2023-02-25T03:58:38.268Z,95377.75
2023-02-25T04:01:27.762Z,95383.88
2023-02-25T04:03:54.222Z,95381.94
2023-02-25T04:06:23.241Z,95388.91
2023-02-25T04:08:50.141Z,95389.25
2023-02-25T04:11:16.799Z,95390.06
2023-02-25T04:13:43.317Z,95397.47
2023-02-25T04:16:09.893Z,95388.41
2023-02-25T04:18:36.469Z,95388.25
2023-02-25T04:21:06.663Z,95393.28
2023-02-25T04:23:34.029Z,95401.66
2023-02-25T04:26:00.751Z,95404.41
2023-02-25T04:28:27.525Z,95406.22
2023-02-25T04:30:54.065Z,95413.38
2023-02-25T04:33:20.618Z,95413.59
2023-02-25T04:35:47.104Z,95416.22
2023-02-25T04:38:13.543Z,95419.34
2023-02-25T04:40:42.316Z,95427.94
2023-02-25T04:43:09.935Z,95429.06
2023-02-25T04:45:36.458Z,95434.56
2023-02-25T04:48:03.593Z,95433.09
2023-02-25T04:50:31.049Z,95425.84
2023-02-25T04:53:00.028Z,95433.31
2023-02-25T04:55:26.588Z,95435.44
2023-02-25T04:57:53.100Z,95439.63
2023-02-25T05:00:24.046Z,95431.50
2023-02-25T05:02:50.861Z,95436.69
2023-02-25T05:05:18.385Z,95442.06
2023-02-25T05:07:45.299Z,95431.66
2023-02-25T05:10:18.676Z,95433.63
2023-02-25T05:12:45.182Z,95433.63
2023-02-25T05:15:11.933Z,95430.59
2023-02-25T05:17:38.486Z,95428.25
2023-02-25T05:20:12.945Z,95435.22
2023-02-25T05:22:43.071Z,95431.53
2023-02-25T05:25:10.846Z,95435.75
2023-02-25T05:27:37.782Z,95431.66
2023-02-25T05:30:04.881Z,95423.78
2023-02-25T05:32:32.209Z,95440.28
2023-02-25T05:34:58.814Z,95433.81
2023-02-25T05:37:28.370Z,95437.72
2023-02-25T05:39:54.856Z,95434.31
2023-02-25T05:42:23.354Z,95434.75
2023-02-25T05:44:50.177Z,95443.22
2023-02-25T05:47:21.183Z,95439.31
2023-02-25T05:49:47.613Z,95448.34
2023-02-25T05:52:14.171Z,95442.88
2023-02-25T05:54:40.703Z,95448.63
2023-02-25T05:57:07.189Z,95441.16
2023-02-25T05:59:33.757Z,95431.81
2023-02-25T06:02:00.611Z,95426.97
2023-02-25T06:04:27.147Z,95420.13
2023-02-25T06:06:53.586Z,95424.81
2023-02-25T06:09:20.863Z,95433.09
2023-02-25T06:11:48.667Z,95442.59
2023-02-25T06:14:16.330Z,95443.31
2023-02-25T06:16:43.187Z,95473.81
2023-02-25T06:19:11.136Z,95471.03
2023-02-25T06:21:37.978Z,95479.16
2023-02-25T06:24:05.746Z,95467.63
2023-02-25T06:26:32.285Z,95461.16
2023-02-25T06:28:58.762Z,95464.00
2023-02-25T06:31:25.636Z,95463.28
2023-02-25T06:33:54.893Z,95476.97
2023-02-25T06:36:24.241Z,95472.91
2023-02-25T06:38:53.887Z,95469.97
2023-02-25T06:41:22.127Z,95478.97
2023-02-25T06:43:52.215Z,95485.28
2023-02-25T06:46:24.159Z,95484.94
2023-02-25T06:48:51.261Z,95487.66
2023-02-25T06:51:17.886Z,95486.22
2023-02-25T06:53:45.019Z,95495.63
2023-02-25T06:56:14.112Z,95499.91
2023-02-25T06:58:40.932Z,95503.06
2023-02-25T07:01:09.493Z,95489.56
2023-02-25T07:03:36.307Z,95501.22
2023-02-25T07:06:05.577Z,95506.75
2023-02-25T07:08:32.450Z,95497.91
2023-02-25T07:11:12.435Z,95507.66
2023-02-25T07:13:43.261Z,95504.59
2023-02-25T07:16:11.460Z,95507.66
2023-02-25T07:18:37.948Z,95507.91
2023-02-25T07:21:05.101Z,95500.03
2023-02-25T07:23:34.374Z,95511.06
2023-02-25T07:26:09.824Z,95495.91
2023-02-25T07:28:36.760Z,95505.84
2023-02-25T07:31:09.213Z,95510.41
2023-02-25T07:33:44.050Z,95512.50
2023-02-25T07:36:11.468Z,95508.09
2023-02-25T07:38:38.941Z,95502.94
2023-02-25T07:41:07.552Z,95508.47
2023-02-25T07:43:34.115Z,95499.38
2023-02-25T07:46:00.819Z,95508.16
2023-02-25T07:48:27.897Z,95507.22
2023-02-25T07:50:55.349Z,95516.81
2023-02-25T07:53:22.550Z,95514.19
2023-02-25T07:55:50.608Z,95517.31
2023-02-25T07:58:17.066Z,95512.06
2023-02-25T08:00:45.726Z,95513.72
2023-02-25T08:03:12.376Z,95526.06
2023-02-25T08:05:39.061Z,95515.84
2023-02-25T08:08:06.080Z,95517.31
2023-02-25T08:10:32.682Z,95520.19
2023-02-25T08:12:59.145Z,95514.50
2023-02-25T08:15:25.563Z,95519.22
2023-02-25T08:17:53.064Z,95512.13
2023-02-25T08:20:20.155Z,95518.63
2023-02-25T08:22:46.602Z,95507.88
2023-02-25T08:25:13.129Z,95514.03
2023-02-25T08:27:40.053Z,95511.47
2023-02-25T08:30:08.691Z,95516.50
2023-02-25T08:32:36.500Z,95521.81
2023-02-25T08:35:03.643Z,95512.78
2023-02-25T08:37:30.196Z,95508.41
2023-02-25T08:40:00.866Z,95522.50
2023-02-25T08:42:30.639Z,95517.31
2023-02-25T08:44:57.119Z,95516.00
2023-02-25T08:47:24.604Z,95520.56
2023-02-25T08:49:52.316Z,95521.22
2023-02-25T08:52:18.824Z,95527.56
2023-02-25T08:54:45.249Z,95527.06
2023-02-25T08:57:11.681Z,95519.28
2023-02-25T08:59:38.195Z,95524.81
2023-02-25T09:02:07.584Z,95530.97
2023-02-25T09:04:34.921Z,95525.13
2023-02-25T09:07:02.138Z,95526.59
2023-02-25T09:09:29.132Z,95522.03
2023-02-25T09:11:55.895Z,95525.25
2023-02-25T09:14:22.802Z,95524.25
2023-02-25T09:16:49.593Z,95515.97
2023-02-25T09:19:18.310Z,95534.63
2023-02-25T09:21:49.585Z,95531.09
2023-02-25T09:24:17.027Z,95530.75
2023-02-25T09:26:44.537Z,95524.16
2023-02-25T09:29:12.990Z,95518.44
2023-02-25T09:31:43.729Z,95515.13
2023-02-25T09:34:14.356Z,95517.75
2023-02-25T09:36:41.502Z,95518.81
2023-02-25T09:39:10.202Z,95525.66
2023-02-25T09:41:55.857Z,95533.38
2023-02-25T09:44:38.717Z,95540.25
2023-02-25T09:47:21.276Z,95533.34
2023-02-25T09:50:02.212Z,95543.16
2023-02-25T09:52:39.119Z,95544.59
2023-02-25T09:55:11.801Z,95539.97
2023-02-25T09:57:41.725Z,95543.88
2023-02-25T10:00:19.091Z,95550.22
2023-02-25T10:03:02.323Z,95558.16
2023-02-25T10:05:43.385Z,95554.81
2023-02-25T10:08:34.015Z,95557.72
2023-02-25T10:11:07.827Z,95549.94
2023-02-25T10:13:48.564Z,95553.66
2023-02-25T10:16:27.267Z,95546.50
2023-02-25T10:19:17.077Z,95543.25
2023-02-25T10:22:21.354Z,95554.56
2023-02-25T10:24:58.057Z,95545.22
2023-02-25T10:27:33.894Z,95545.44
2023-02-25T10:30:15.019Z,95542.03
2023-02-25T10:32:44.717Z,95542.53
2023-02-25T10:35:23.820Z,95548.03
2023-02-25T10:37:50.292Z,95549.66
2023-02-25T10:40:24.574Z,95538.41
2023-02-25T10:42:55.133Z,95547.16
2023-02-25T10:45:27.298Z,95552.00
2023-02-25T10:48:03.894Z,95542.72
2023-02-25T10:50:44.358Z,95544.88
2023-02-25T10:53:17.892Z,95547.06
2023-02-25T10:55:44.273Z,95540.66
2023-02-25T10:58:55.924Z,95539.13
2023-02-25T11:01:23.209Z,95547.44
2023-02-25T11:03:59.976Z,95535.75
2023-02-25T11:06:44.711Z,95536.78
2023-02-25T11:09:20.153Z,95538.31
2023-02-25T11:12:09.522Z,95534.97
2023-02-25T11:14:39.598Z,95537.63
2023-02-25T11:17:20.832Z,95522.94
2023-02-25T11:19:50.939Z,95521.31
2023-02-25T11:22:22.128Z,95520.25
2023-02-25T11:25:00.663Z,95513.66
2023-02-25T11:27:39.382Z,95511.38
2023-02-25T11:30:12.196Z,95519.13
2023-02-25T11:32:53.978Z,95513.81
2023-02-25T11:35:28.726Z,95498.47
2023-02-25T11:37:56.617Z,95492.81
2023-02-25T11:40:27.927Z,95493.97
2023-02-25T11:43:06.770Z,95491.84
2023-02-25T11:45:37.644Z,95495.94
2023-02-25T11:48:16.292Z,95495.94
2023-02-25T11:50:57.573Z,95491.75
2023-02-25T11:54:01.078Z,95482.50
2023-02-25T11:56:35.257Z,95485.16
2023-02-25T11:59:19.883Z,95487.09
2023-02-25T12:02:20.712Z,95484.03
2023-02-25T12:05:14.885Z,95481.13
2023-02-25T12:08:13.780Z,95473.16
2023-02-25T12:11:07.339Z,95487.19
2023-02-25T12:13:55.591Z,95492.47
2023-02-25T12:16:40.200Z,95521.81
2023-02-25T12:19:12.962Z,95535.72
2023-02-25T12:22:17.710Z,95544.03
2023-02-25T12:25:21.961Z,95546.91
2023-02-25T12:28:50.974Z,95547.56
2023-02-25T12:31:37.760Z,95541.03
2023-02-25T12:34:28.723Z,95532.53
2023-02-25T12:37:23.818Z,95527.34
2023-02-25T12:40:29.908Z,95537.03
2023-02-25T12:43:30.805Z,95539.84
2023-02-25T12:46:20.999Z,95550.59
2023-02-25T12:49:00.698Z,95553.38
2023-02-25T12:51:40.145Z,95546.69
2023-02-25T12:54:24.961Z,95551.44
2023-02-25T12:57:00.727Z,95553.56
2023-02-25T13:00:09.517Z,95556.78
2023-02-25T13:02:41.973Z,95566.34
2023-02-25T13:05:45.535Z,95573.59
2023-02-25T13:08:24.196Z,95575.06
2023-02-25T13:11:31.229Z,95575.53
2023-02-25T13:14:14.711Z,95582.44
2023-02-25T13:17:14.179Z,95581.47
2023-02-25T13:20:18.556Z,95586.63
2023-02-25T13:23:05.573Z,95588.44
2023-02-25T13:26:02.356Z,95582.53
2023-02-25T13:29:06.507Z,95577.50
2023-02-25T13:31:46.452Z,95574.00
2023-02-25T13:34:38.935Z,95574.88
2023-02-25T13:37:37.991Z,95571.94
2023-02-25T13:40:23.652Z,95564.22
2023-02-25T13:43:12.797Z,95571.56
2023-02-25T13:45:56.192Z,95579.00
2023-02-25T13:48:49.817Z,95563.13
2023-02-25T13:51:45.399Z,95575.47
2023-02-25T13:54:24.116Z,95575.81
2023-02-25T13:57:11.573Z,95575.81
2023-02-25T14:00:00.341Z,95573.84
2023-02-25T14:02:54.722Z,95578.56
2023-02-25T14:05:58.713Z,95579.34
2023-02-25T14:08:34.676Z,95565.38
2023-02-25T14:11:27.048Z,95586.50
2023-02-25T14:14:47.130Z,95581.66
2023-02-25T14:17:47.610Z,95583.91
2023-02-25T14:20:44.457Z,95587.34
2023-02-25T14:23:43.105Z,95591.38
2023-02-25T14:26:23.679Z,95594.16
2023-02-25T14:29:07.563Z,95595.63
2023-02-25T14:31:53.367Z,95608.28
2023-02-25T14:34:35.657Z,95608.13
2023-02-25T14:37:26.644Z,95613.16
2023-02-25T14:40:05.287Z,95621.59
2023-02-25T14:43:06.363Z,95620.59
2023-02-25T14:45:44.834Z,95625.75
2023-02-25T14:48:26.849Z,95613.94
2023-02-25T14:51:00.266Z,95625.44
2023-02-25T14:53:59.978Z,95631.78
2023-02-25T14:56:50.491Z,95649.47
2023-02-25T15:00:05.583Z,95648.78
2023-02-25T15:02:37.804Z,95639.69
2023-02-25T15:05:10.521Z,95646.19
2023-02-25T15:08:01.473Z,95638.34
2023-02-25T15:10:47.816Z,95647.13
2023-02-25T15:13:17.346Z,95641.78
2023-02-25T15:15:53.028Z,95648.97
2023-02-25T15:18:22.471Z,95651.53
2023-02-25T15:20:49.625Z,95652.03
2023-02-25T15:23:19.822Z,95658.22
2023-02-25T15:25:53.931Z,95663.41
2023-02-25T15:28:29.315Z,95672.50
2023-02-25T15:30:58.681Z,95669.03
2023-02-25T15:33:34.930Z,95662.97
2023-02-25T15:36:21.655Z,95654.84
2023-02-25T15:38:50.622Z,95656.31
2023-02-25T15:41:29.583Z,95661.97
2023-02-25T15:44:12.847Z,95673.09
2023-02-25T15:46:43.704Z,95682.09
2023-02-25T15:49:30.418Z,95689.66
2023-02-25T15:52:01.049Z,95691.59
2023-02-25T15:54:28.608Z,95689.16
2023-02-25T15:56:56.867Z,95689.56
2023-02-25T15:59:52.811Z,95693.03
2023-02-25T16:02:34.809Z,95687.22
2023-02-25T16:05:11.827Z,95682.44
2023-02-25T16:07:48.112Z,95686.97
2023-02-25T16:10:31.387Z,95679.63
2023-02-25T16:13:00.970Z,95678.88
2023-02-25T16:15:37.107Z,95690.06
2023-02-25T16:18:21.529Z,95690.84
2023-02-25T16:20:53.546Z,95695.88
2023-02-25T16:23:21.263Z,95706.69
2023-02-25T16:26:19.336Z,95705.53
2023-02-25T16:29:02.144Z,95703.94
2023-02-25T16:31:42.093Z,95706.28
2023-02-25T16:34:23.647Z,95706.13
2023-02-25T16:37:09.085Z,95712.72
2023-02-25T16:39:37.393Z,95720.78
2023-02-25T16:42:08.742Z,95720.25
2023-02-25T16:44:39.011Z,95725.34
2023-02-25T16:47:22.607Z,95731.56
2023-02-25T16:49:50.549Z,95734.47
2023-02-25T16:52:37.599Z,95742.91
2023-02-25T16:55:12.321Z,95742.91
2023-02-25T16:57:39.121Z,95752.66
2023-02-25T17:00:20.597Z,95760.28
2023-02-25T17:02:49.917Z,95760.75
2023-02-25T17:05:33.042Z,95767.91
2023-02-25T17:08:02.528Z,95773.06
2023-02-25T17:10:43.669Z,95772.53
2023-02-25T17:13:15.858Z,95778.53
2023-02-25T17:15:42.765Z,95785.25
2023-02-25T17:18:20.595Z,95794.91
2023-02-25T17:20:48.167Z,95806.41
2023-02-25T17:23:15.883Z,95809.97
2023-02-25T17:25:49.574Z,95821.41
2023-02-25T17:28:34.415Z,95825.75
2023-02-25T17:31:18.670Z,95830.44
2023-02-25T17:33:55.650Z,95828.78
2023-02-25T17:36:30.342Z,95835.34
2023-02-25T17:39:01.194Z,95831.94
2023-02-25T17:41:27.926Z,95844.22
2023-02-25T17:43:54.789Z,95854.69
2023-02-25T17:46:40.345Z,95857.94
2023-02-25T17:49:28.822Z,95858.38
2023-02-25T17:51:58.861Z,95873.53
2023-02-25T17:54:27.588Z,95866.28
2023-02-25T17:57:05.665Z,95866.41
2023-02-25T17:59:43.629Z,95863.31
2023-02-25T18:02:37.784Z,95877.75
2023-02-25T18:05:11.048Z,95873.25
2023-02-25T18:07:47.377Z,95868.88
2023-02-25T18:10:37.054Z,95875.16
2023-02-25T18:13:05.017Z,95873.78
2023-02-25T18:15:33.986Z,95861.50
2023-02-25T18:18:05.954Z,95876.22
2023-02-25T18:20:32.531Z,95878.31
2023-02-25T18:23:21.092Z,95879.41
2023-02-25T18:26:09.386Z,95887.16
2023-02-25T18:28:36.252Z,95886.72
2023-02-25T18:31:02.916Z,95887.16
2023-02-25T18:33:29.433Z,95888.25
2023-02-25T18:35:57.375Z,95884.31
2023-02-25T18:38:26.486Z,95892.34
2023-02-25T18:40:54.324Z,95890.28
2023-02-25T18:43:35.013Z,95905.53
2023-02-25T18:46:02.759Z,95901.84
2023-02-25T18:48:29.410Z,95902.81
2023-02-25T18:50:58.462Z,95911.13
2023-02-25T18:53:26.443Z,95913.69
2023-02-25T18:55:54.615Z,95913.03
2023-02-25T18:58:24.814Z,95917.53
2023-02-25T19:01:01.821Z,95922.56
2023-02-25T19:03:32.183Z,95914.13
2023-02-25T19:05:58.963Z,95908.13
2023-02-25T19:08:26.466Z,95918.34
2023-02-25T19:10:54.005Z,95928.41
2023-02-25T19:13:27.433Z,95917.66
2023-02-25T19:15:53.882Z,95924.09
2023-02-25T19:18:29.495Z,95929.91
2023-02-25T19:20:56.512Z,95923.81
2023-02-25T19:23:22.982Z,95925.97
2023-02-25T19:25:55.617Z,95935.09
2023-02-25T19:28:25.385Z,95925.41
2023-02-25T19:30:51.936Z,95929.63
2023-02-25T19:33:18.753Z,95923.41
2023-02-25T19:35:46.258Z,95928.00
2023-02-25T19:38:19.225Z,95930.31
2023-02-25T19:40:48.338Z,95932.66
2023-02-25T19:43:17.890Z,95942.72
2023-02-25T19:45:44.595Z,95953.59
2023-02-25T19:48:18.069Z,95951.44
2023-02-25T19:50:44.483Z,95952.78
2023-02-25T19:53:11.280Z,95952.91
2023-02-25T19:55:39.713Z,95950.19
2023-02-25T19:58:12.998Z,95963.25
2023-02-25T20:00:45.858Z,95963.53
2023-02-25T20:03:13.834Z,95971.28
2023-02-25T20:05:40.430Z,95975.63
2023-02-25T20:08:07.035Z,95972.19
2023-02-25T20:10:34.559Z,95980.91
2023-02-25T20:13:00.995Z,95982.44
2023-02-25T20:15:27.652Z,95988.50
2023-02-25T20:17:55.029Z,95991.13
2023-02-25T20:20:29.749Z,95994.84
2023-02-25T20:22:56.317Z,95994.38
2023-02-25T20:25:23.034Z,95992.63
2023-02-25T20:27:49.584Z,96001.06
2023-02-25T20:30:18.359Z,96002.03
2023-02-25T20:32:46.165Z,96001.84
2023-02-25T20:35:20.481Z,96004.19
2023-02-25T20:37:58.815Z,96003.59
2023-02-25T20:40:33.565Z,96010.97
2023-02-25T20:43:04.569Z,96018.31
2023-02-25T20:45:31.482Z,96027.09
2023-02-25T20:48:01.122Z,96021.88
2023-02-25T20:50:29.269Z,96024.91
2023-02-25T20:52:56.250Z,96025.53
2023-02-25T20:55:23.241Z,96030.59
2023-02-25T20:57:50.742Z,96032.09
2023-02-25T21:00:22.136Z,96028.53
2023-02-25T21:02:48.634Z,96031.25
2023-02-25T21:05:15.264Z,96038.94
2023-02-25T21:07:41.754Z,96050.63
2023-02-25T21:10:10.318Z,96040.91
2023-02-25T21:12:36.825Z,96056.66
2023-02-25T21:15:03.704Z,96048.44
2023-02-25T21:17:30.473Z,96057.47
2023-02-25T21:19:56.962Z,96053.75
2023-02-25T21:22:23.574Z,96065.97
2023-02-25T21:24:50.015Z,96066.59
2023-02-25T21:27:18.376Z,96076.56
2023-02-25T21:29:47.155Z,96063.91
2023-02-25T21:32:13.894Z,96068.00
2023-02-25T21:34:40.421Z,96066.56
2023-02-25T21:37:08.019Z,96076.56
2023-02-25T21:39:34.610Z,96073.59
2023-02-25T21:42:02.057Z,96072.66
2023-02-25T21:44:34.586Z,96084.06
2023-02-25T21:47:01.063Z,96080.53
2023-02-25T21:49:30.835Z,96088.34
2023-02-25T21:51:58.229Z,96083.88
2023-02-25T21:54:24.701Z,96087.13
2023-02-25T21:56:51.153Z,96084.06
2023-02-25T21:59:17.614Z,96085.44
2023-02-25T22:01:44.705Z,96080.88
2023-02-25T22:04:11.295Z,96091.56
2023-02-25T22:06:38.019Z,96096.72
2023-02-25T22:09:06.908Z,96086.03
2023-02-25T22:11:36.208Z,96090.59
2023-02-25T22:14:07.315Z,96091.44
2023-02-25T22:16:35.592Z,96091.06
2023-02-25T22:19:02.017Z,96089.81
2023-02-25T22:21:30.579Z,96086.03
2023-02-25T22:24:01.036Z,96082.25
2023-02-25T22:26:30.508Z,96083.94
2023-02-25T22:29:04.005Z,96083.16
2023-02-25T22:31:30.744Z,96084.66
2023-02-25T22:33:59.623Z,96083.03
2023-02-25T22:36:37.266Z,96082.19
2023-02-25T22:39:07.941Z,96080.19
2023-02-25T22:41:34.957Z,96082.78
2023-02-25T22:44:01.781Z,96082.56
2023-02-25T22:46:30.564Z,96088.56
2023-02-25T22:48:57.488Z,96085.47
2023-02-25T22:51:30.181Z,96086.63
2023-02-25T22:53:59.419Z,96093.88
2023-02-25T22:56:26.934Z,96085.31
2023-02-25T22:58:53.772Z,96088.25
2023-02-25T23:01:23.116Z,96087.81
2023-02-25T23:03:51.374Z,96085.22
2023-02-25T23:06:20.706Z,96081.69
2023-02-25T23:08:47.631Z,96086.41
2023-02-25T23:11:17.843Z,96092.63
2023-02-25T23:13:48.604Z,96090.03
2023-02-25T23:16:17.258Z,96106.81
2023-02-25T23:18:44.680Z,96111.53
2023-02-25T23:21:16.116Z,96107.53
2023-02-25T23:23:43.475Z,96116.44
2023-02-25T23:26:13.339Z,96113.16
2023-02-25T23:28:40.192Z,96113.81
2023-02-25T23:31:06.995Z,96115.03
2023-02-25T23:33:33.685Z,96118.19
2023-02-25T23:36:01.216Z,96121.13
2023-02-25T23:38:28.063Z,96119.72
2023-02-25T23:41:00.210Z,96125.78
2023-02-25T23:43:28.776Z,96125.91
2023-02-25T23:46:04.089Z,96125.47
2023-02-25T23:48:30.678Z,96126.66
2023-02-25T23:50:57.475Z,96122.25
2023-02-25T23:53:24.940Z,96119.94
2023-02-25T23:55:51.373Z,96129.19
2023-02-25T23:58:17.826Z,96132.50
